createdAt,value
2018-04-11T00:03:41.555Z,12.49
2018-04-11T00:09:32.233Z,7.88
2018-04-11T00:15:22.938Z,10.92
2018-04-11T00:21:13.622Z,12.65
2018-04-11T00:27:04.342Z,14.62
2018-04-11T00:32:55.074Z,8.93
2018-04-11T00:38:45.776Z,12.38
2018-04-11T00:44:36.464Z,15.23
2018-04-11T00:50:27.151Z,16.73
2018-04-11T00:56:17.898Z,8.9
2018-04-11T01:02:08.585Z,11.52
2018-04-11T01:07:59.298Z,14.59
2018-04-11T01:13:49.953Z,13.65
2018-04-11T01:19:40.641Z,8.49
2018-04-11T01:25:31.368Z,7.42
2018-04-11T01:31:22.067Z,7.25
2018-04-11T01:37:12.797Z,6.59
2018-04-11T01:43:03.469Z,12.06
2018-04-11T01:48:54.183Z,12.94
2018-04-11T01:54:44.870Z,13.46
2018-04-11T02:00:35.565Z,14.28
2018-04-11T02:06:26.245Z,8.14
2018-04-11T02:12:16.945Z,8.13
2018-04-11T02:18:07.704Z,4.56
2018-04-11T02:23:58.337Z,6.46
2018-04-11T02:29:49.078Z,10.44
2018-04-11T02:35:39.838Z,15.28
2018-04-11T02:41:30.441Z,12.44
2018-04-11T02:47:21.179Z,11.56
2018-04-11T02:53:11.848Z,10.71
2018-04-11T02:59:02.560Z,14.2
2018-04-11T03:04:53.276Z,12.53
2018-04-11T03:10:44.011Z,11.83
2018-04-11T03:16:34.666Z,4.96
2018-04-11T03:22:25.362Z,6.97
2018-04-11T03:28:16.092Z,7.63
2018-04-11T03:34:06.810Z,6.85
2018-04-11T03:39:57.479Z,7
2018-04-11T03:45:48.209Z,6.61
2018-04-11T03:51:38.907Z,6.65
2018-04-11T03:57:29.608Z,4.52
2018-04-11T04:03:20.318Z,9.74
2018-04-11T04:09:11.009Z,4.18
2018-04-11T04:15:01.726Z,3.1
2018-04-11T04:20:52.410Z,7.62
2018-04-11T04:26:43.323Z,15.89
2018-04-11T04:32:33.844Z,20.7
2018-04-11T04:38:24.540Z,22.16
2018-04-11T04:44:15.284Z,20.64
2018-04-11T04:50:05.917Z,21.27
2018-04-11T04:55:56.627Z,25.34
2018-04-11T05:01:47.322Z,10.72
2018-04-11T05:07:38.097Z,17.49
2018-04-11T05:13:28.747Z,11.72
2018-04-11T05:19:19.471Z,11.57
2018-04-11T05:25:10.176Z,3.51
2018-04-11T05:31:00.832Z,7.1
2018-04-11T05:36:51.593Z,8.26
2018-04-11T05:42:42.271Z,22.01
2018-04-11T05:48:32.985Z,12.85
2018-04-11T05:54:23.655Z,18.1
2018-04-11T06:00:14.445Z,18.3
2018-04-11T06:06:05.089Z,14.95
2018-04-11T06:11:55.753Z,10.92
2018-04-11T06:17:46.445Z,20.64
2018-04-11T06:23:37.182Z,24.23
2018-04-11T06:29:27.889Z,24.69
2018-04-11T06:35:18.619Z,25.7
2018-04-11T06:41:09.295Z,27.58
2018-04-11T06:47:00.016Z,28.97
2018-04-11T06:52:50.697Z,26.31
2018-04-11T06:58:41.427Z,30.2
2018-04-11T07:04:32.073Z,31.5
2018-04-11T07:10:22.838Z,26.86
2018-04-11T07:16:13.520Z,31.25
2018-04-11T07:22:04.204Z,22.55
2018-04-11T07:27:54.889Z,14.6
2018-04-11T07:33:45.636Z,14.69
2018-04-11T07:39:36.342Z,8.71
2018-04-11T07:45:27.044Z,13.32
2018-04-11T07:51:17.746Z,18.69
2018-04-11T07:57:08.434Z,20.64
2018-04-11T08:02:59.095Z,15.79
2018-04-11T08:08:49.871Z,14.54
2018-04-11T08:14:40.531Z,14.02
2018-04-11T08:20:31.246Z,7.35
2018-04-11T08:26:21.976Z,5.94
2018-04-11T08:32:12.647Z,9.7
2018-04-11T08:38:03.362Z,4.64
2018-04-11T08:43:54.104Z,9.65
2018-04-11T08:49:44.818Z,3.03
2018-04-11T08:55:35.500Z,3.39
2018-04-11T09:01:26.255Z,6.31
2018-04-11T09:07:16.896Z,5.15
2018-04-11T09:13:07.640Z,3.91
2018-04-11T09:18:58.351Z,4.69
2018-04-11T09:24:49.138Z,5.38
2018-04-11T09:30:39.756Z,3.76
2018-04-11T09:36:30.459Z,3.97
2018-04-11T09:42:21.186Z,4.66
2018-04-11T09:48:11.922Z,12.7
2018-04-11T09:54:02.645Z,9.12
2018-04-11T09:59:53.329Z,5.66
2018-04-11T10:05:44.052Z,8.88
2018-04-11T10:11:34.825Z,6.11
2018-04-11T10:17:25.515Z,7.04
2018-04-11T10:23:16.603Z,8.16
2018-04-11T10:29:06.887Z,8.36
2018-04-11T10:34:57.621Z,4.19
2018-04-11T10:40:48.335Z,3.6
2018-04-11T10:46:39.075Z,6.3
2018-04-11T10:52:29.732Z,5.58
2018-04-11T10:58:20.479Z,4.1
2018-04-11T11:04:11.171Z,3.9
2018-04-11T11:10:01.930Z,6.89
2018-04-11T11:15:52.742Z,7.5
2018-04-11T11:21:43.368Z,8.11
2018-04-11T11:27:34.092Z,3.5
2018-04-11T11:33:24.808Z,8.19
2018-04-11T11:39:15.530Z,5.45
2018-04-11T11:45:06.206Z,5.72
2018-04-11T11:50:56.922Z,5.57
2018-04-11T11:56:47.649Z,2.97
2018-04-11T12:02:38.335Z,6.84
2018-04-11T12:08:29.088Z,5.67
2018-04-11T12:14:19.775Z,4.41
2018-04-11T12:20:10.531Z,5.96
2018-04-11T12:26:01.230Z,6.8
2018-04-11T12:31:52.012Z,5.47
2018-04-11T12:37:42.643Z,12.04
2018-04-11T12:43:33.364Z,3.25
2018-04-11T12:49:24.074Z,4.44
2018-04-11T12:55:14.761Z,7.09
2018-04-11T13:01:05.511Z,4.37
2018-04-11T13:06:56.212Z,4.69
2018-04-11T13:12:46.917Z,6.53
2018-04-11T13:18:37.643Z,5.46
2018-04-11T13:24:28.361Z,3.87
2018-04-11T13:30:19.122Z,4.4
2018-04-11T13:36:09.745Z,5.09
2018-04-11T13:42:00.572Z,5.57
2018-04-11T13:47:51.165Z,10.57
2018-04-11T13:53:41.916Z,8.75
2018-04-11T13:59:32.640Z,3.58
2018-04-11T14:05:23.329Z,4.28
2018-04-11T14:11:14.061Z,10.8
2018-04-11T14:17:04.861Z,5.82
2018-04-11T14:22:55.484Z,8.96
2018-04-11T14:28:46.207Z,13.25
2018-04-11T14:34:36.887Z,5.87
2018-04-11T14:40:27.603Z,8.48
2018-04-11T14:46:18.336Z,7.26
2018-04-11T14:52:09.022Z,6.49
2018-04-11T14:57:59.732Z,7.53
2018-04-11T15:03:50.534Z,8.53
2018-04-11T15:09:41.223Z,10.7
2018-04-11T15:15:31.910Z,11.75
2018-04-11T15:21:22.696Z,6.12
2018-04-11T15:27:13.368Z,6.35
2018-04-11T15:33:04.024Z,7.35
2018-04-11T15:38:54.751Z,6.84
2018-04-11T15:44:45.458Z,10.69
2018-04-11T15:50:36.210Z,9.25
2018-04-11T15:56:26.868Z,5.73
2018-04-11T16:02:17.562Z,8.77
2018-04-11T16:08:08.306Z,7.79
2018-04-11T16:13:59.031Z,6.61
2018-04-11T16:19:49.761Z,8.38
2018-04-11T16:25:40.430Z,6.1
2018-04-11T16:31:31.149Z,5.83
2018-04-11T16:37:21.900Z,5.48
2018-04-11T16:43:12.588Z,8.35
2018-04-11T16:49:03.284Z,7.28
2018-04-11T16:54:53.981Z,5.85
2018-04-11T17:00:44.762Z,8.43
2018-04-11T17:06:35.406Z,6.15
2018-04-11T17:12:26.153Z,6.11
2018-04-11T17:18:16.895Z,8.57
2018-04-11T17:24:07.538Z,7.09
2018-04-11T17:29:58.232Z,7.72
2018-04-11T17:35:48.958Z,8.29
2018-04-11T17:41:39.619Z,6.03
2018-04-11T17:47:30.394Z,10.04
2018-04-11T17:53:21.057Z,8.37
2018-04-11T17:59:11.841Z,8.85
2018-04-11T18:05:02.472Z,14.43
2018-04-11T18:10:53.182Z,9.91
2018-04-11T18:16:43.908Z,8.2
2018-04-11T18:22:34.597Z,6.96
2018-04-11T18:28:25.303Z,11.09
2018-04-11T18:34:16.050Z,18.3
2018-04-11T18:40:06.716Z,19.27
2018-04-11T18:45:57.498Z,14.7
2018-04-11T18:51:48.152Z,32.46
2018-04-11T18:57:38.863Z,19.1
2018-04-11T19:03:29.592Z,20.09
2018-04-11T19:09:20.275Z,16.59
2018-04-11T19:15:11.001Z,25.31
2018-04-11T19:21:01.686Z,20.82
2018-04-11T19:26:52.499Z,21.5
2018-04-11T19:32:43.136Z,27.84
2018-04-11T19:38:33.837Z,19.01
2018-04-11T19:44:24.623Z,25.03
2018-04-11T19:50:15.270Z,20.17
2018-04-11T19:56:06.067Z,20.64
2018-04-11T20:01:56.711Z,18.32
2018-04-11T20:07:47.385Z,16.51
2018-04-11T20:13:38.149Z,23.75
2018-04-11T20:19:28.805Z,18.31
2018-04-11T20:25:19.522Z,13.2
2018-04-11T20:31:10.210Z,10.88
2018-04-11T20:37:00.931Z,12.57
2018-04-11T20:42:51.731Z,16.81
2018-04-11T20:48:42.341Z,13.8
2018-04-11T20:54:33.152Z,10.73
2018-04-11T21:00:23.759Z,11.84
2018-04-11T21:06:14.495Z,18.87
2018-04-11T21:12:05.226Z,14.05
2018-04-11T21:17:55.890Z,17.7
2018-04-11T21:23:46.592Z,17.86
2018-04-11T21:29:37.299Z,19.75
2018-04-11T21:35:28.062Z,16.01
2018-04-11T21:41:18.746Z,10.16
2018-04-11T21:47:09.412Z,10.64
2018-04-11T21:53:00.131Z,6.6
2018-04-11T21:58:50.878Z,9.54
2018-04-11T22:04:41.633Z,11.6
2018-04-11T22:10:32.309Z,8.34
2018-04-11T22:16:23.007Z,17.57
2018-04-11T22:22:13.678Z,10.48
2018-04-11T22:28:04.410Z,13.4
2018-04-11T22:33:55.168Z,8.99
2018-04-11T22:39:45.829Z,15.25
2018-04-11T22:45:36.509Z,11.06
2018-04-11T22:51:27.249Z,8.39
2018-04-11T22:57:18.000Z,11.11
2018-04-11T23:03:08.660Z,9.2
2018-04-11T23:08:59.361Z,9.92
2018-04-11T23:14:50.166Z,7.85
2018-04-11T23:20:40.825Z,10.51
2018-04-11T23:26:31.534Z,11.66
2018-04-11T23:32:22.185Z,12.53
2018-04-11T23:38:12.950Z,8.03
2018-04-11T23:44:03.578Z,7.63
2018-04-11T23:49:54.313Z,10.15
2018-04-11T23:55:45.096Z,9.47
